Time;durP1;ratioP1;P1;durP2;ratioP2;P2;SDS_P1;SDS_P2;PMS_P1;PMS_P2;Temp;Humidity;BMP_temperature;BMP_pressure;BME280_temperature;BME280_humidity;BME280_pressure;Samples;Min_cycle;Max_cycle;Signal;HPM_P1;HPM_P2
2023/12/05 00:01:50;;;;;;;83.80;45.00;;;;;;;-7.45;90.59;100913.90;108715;281;153956;-71
2023/12/05 00:04:24;;;;;;;91.40;45.40;;;;;;;-7.43;90.81;100906.05;108726;281;189806;-70
2023/12/05 00:06:58;;;;;;;83.60;44.10;;;;;;;-7.37;91.02;100902.06;108695;281;176557;-69
2023/12/05 00:09:32;;;;;;;81.70;43.10;;;;;;;-7.29;91.24;100904.95;108613;281;176544;-70
2023/12/05 00:12:07;;;;;;;81.50;43.60;;;;;;;-7.21;91.09;100905.60;108802;281;38233;-71
2023/12/05 00:14:44;;;;;;;83.00;43.80;;;;;;;-7.16;90.98;100903.61;108719;280;153925;-71
2023/12/05 00:17:19;;;;;;;81.90;44.20;;;;;;;-7.14;90.91;100901.64;108822;281;38308;-71
2023/12/05 00:19:52;;;;;;;85.80;43.90;;;;;;;-7.15;90.75;100901.64;108710;281;153934;-71
2023/12/05 00:22:30;;;;;;;83.60;43.00;;;;;;;-7.14;90.66;100901.30;108193;281;930923;-71
2023/12/05 00:25:05;;;;;;;85.80;44.30;;;;;;;-7.12;90.92;100895.80;108840;281;38298;-70
2023/12/05 00:27:40;;;;;;;78.20;42.00;;;;;;;-7.07;91.22;100887.88;108698;280;154310;-71
2023/12/05 00:30:16;;;;;;;75.90;41.10;;;;;;;-6.98;91.38;100886.05;108779;281;39526;-71
2023/12/05 00:32:50;;;;;;;77.30;39.60;;;;;;;-6.87;91.55;100883.95;108601;280;154180;-69
2023/12/05 00:35:28;;;;;;;77.50;41.50;;;;;;;-6.78;91.58;100883.14;108775;280;38887;-69
2023/12/05 00:38:04;;;;;;;78.00;41.40;;;;;;;-6.73;91.36;100883.15;108686;280;154303;-70
2023/12/05 00:40:41;;;;;;;76.20;39.30;;;;;;;-6.71;91.31;100881.36;108122;281;931291;-70
2023/12/05 00:43:18;;;;;;;70.20;37.80;;;;;;;-6.69;91.31;100883.33;108807;281;38224;-71
2023/12/05 00:45:55;;;;;;;75.80;40.10;;;;;;;-6.63;91.42;100879.30;108797;281;39009;-70
2023/12/05 00:48:29;;;;;;;66.20;37.00;;;;;;;-6.56;91.57;100875.52;108810;282;38296;-69
2023/12/05 00:51:06;;;;;;;67.30;35.80;;;;;;;-6.45;91.68;100875.92;108674;282;153903;-69
2023/12/05 00:53:41;;;;;;;69.90;37.50;;;;;;;-6.41;91.43;100875.73;108836;281;38674;-70
2023/12/05 00:56:20;;;;;;;73.50;37.20;;;;;;;-6.35;91.33;100876.36;108629;281;153628;-72
2023/12/05 00:58:57;;;;;;;73.30;37.00;;;;;;;-6.35;90.98;100879.70;108810;281;38193;-69
2023/12/05 01:01:31;;;;;;;73.10;36.80;;;;;;;-6.38;90.96;100875.86;108706;281;154336;-70
2023/12/05 01:04:06;;;;;;;66.30;35.10;;;;;;;-6.37;90.79;100876.23;108814;281;39034;-70
2023/12/05 01:06:41;;;;;;;65.60;34.60;;;;;;;-6.36;90.70;100873.91;108801;281;38211;-71
2023/12/05 01:09:16;;;;;;;67.80;34.40;;;;;;;-6.31;90.93;100868.48;107999;281;931722;-71
2023/12/05 01:11:50;;;;;;;70.90;37.70;;;;;;;-6.25;91.02;100870.92;108823;281;38426;-71
2023/12/05 01:14:24;;;;;;;69.80;37.00;;;;;;;-6.22;90.90;100868.13;108634;281;153823;-70
2023/12/05 01:16:59;;;;;;;68.90;35.10;;;;;;;-6.22;90.75;100860.67;108825;281;38166;-73
2023/12/05 01:19:35;;;;;;;71.50;34.60;;;;;;;-6.20;90.91;100863.32;108686;281;154911;-70
2023/12/05 01:22:10;;;;;;;67.10;35.50;;;;;;;-6.19;90.42;100858.40;108803;281;38369;-71
2023/12/05 01:24:44;;;;;;;71.50;37.80;;;;;;;-6.22;90.14;100853.71;108815;281;39222;-71
2023/12/05 01:27:19;;;;;;;71.30;39.20;;;;;;;-6.22;90.40;100848.29;108642;281;153938;-72
2023/12/05 01:29:54;;;;;;;74.90;41.40;;;;;;;-6.18;90.67;100849.29;108843;281;38322;-72
2023/12/05 01:32:34;;;;;;;72.80;38.80;;;;;;;-6.16;90.73;100845.12;108589;282;154100;-72
2023/12/05 01:35:09;;;;;;;75.30;37.70;;;;;;;-6.17;90.23;100844.73;108779;281;38192;-71
2023/12/05 01:37:46;;;;;;;73.90;39.10;;;;;;;-6.24;89.79;100840.77;108718;281;154838;-70
2023/12/05 01:40:22;;;;;;;65.60;35.70;;;;;;;-6.26;89.67;100835.95;108759;281;38214;-71
2023/12/05 01:42:56;;;;;;;73.80;36.50;;;;;;;-6.26;89.63;100829.64;108805;281;38273;-70
2023/12/05 01:45:32;;;;;;;67.50;35.50;;;;;;;-6.26;89.82;100827.95;108691;281;153647;-72
2023/12/05 01:48:13;;;;;;;72.80;36.90;;;;;;;-6.25;90.16;100822.39;108874;281;38397;-71
2023/12/05 01:50:47;;;;;;;67.20;35.80;;;;;;;-6.23;90.25;100819.89;108657;281;154968;-69
2023/12/05 01:53:21;;;;;;;67.50;35.20;;;;;;;-6.20;90.30;100817.44;108877;281;38808;-72
2023/12/05 01:56:01;;;;;;;63.30;34.40;;;;;;;-6.21;89.82;100810.45;108646;281;154509;-72
2023/12/05 01:58:35;;;;;;;62.50;33.60;;;;;;;-6.21;89.70;100808.06;108739;281;38557;-71
2023/12/05 02:01:11;;;;;;;67.20;34.40;;;;;;;-6.24;89.50;100809.84;108801;281;37845;-70
2023/12/05 02:03:49;;;;;;;67.40;35.90;;;;;;;-6.24;89.58;100813.94;108666;281;153897;-69
2023/12/05 02:06:26;;;;;;;64.70;35.70;;;;;;;-6.25;89.67;100806.23;108829;281;38267;-71
2023/12/05 02:09:00;;;;;;;64.10;34.50;;;;;;;-6.26;89.91;100807.39;108704;281;155598;-70
2023/12/05 02:11:39;;;;;;;66.90;34.00;;;;;;;-6.24;90.00;100803.91;108811;281;38804;-71
2023/12/05 02:14:15;;;;;;;64.70;32.70;;;;;;;-6.19;90.18;100803.59;108676;281;155562;-70
2023/12/05 02:16:53;;;;;;;65.60;33.40;;;;;;;-6.17;90.06;100797.53;108765;281;38303;-71
2023/12/05 02:19:45;;;;;;;61.60;33.20;;;;;;;-6.11;90.34;100794.00;108697;281;154980;-70
2023/12/05 02:22:46;;;;;;;100.20;50.80;;;;;;;-6.12;89.90;100793.98;108769;281;38586;-70
2023/12/05 02:25:39;;;;;;;131.30;64.70;;;;;;;-6.10;89.97;100793.19;108800;281;38323;-69
2023/12/05 02:28:15;;;;;;;119.90;57.30;;;;;;;-6.12;89.91;100791.78;108650;281;38459;-70
2023/12/05 02:30:51;;;;;;;102.00;47.40;;;;;;;-6.15;89.90;100793.86;108810;281;40501;-72
2023/12/05 02:33:26;;;;;;;76.10;39.20;;;;;;;-6.17;89.81;100796.67;108575;281;155068;-72
2023/12/05 02:36:13;;;;;;;66.60;33.80;;;;;;;-6.15;89.69;100800.13;108794;281;38134;-71
2023/12/05 02:38:53;;;;;;;59.80;31.40;;;;;;;-6.13;89.65;100801.06;108666;281;154101;-71
2023/12/05 02:41:33;;;;;;;63.50;33.50;;;;;;;-6.12;89.46;100802.96;108822;281;39635;-69
2023/12/05 02:44:10;;;;;;;63.80;32.00;;;;;;;-6.13;89.26;100802.77;108714;281;154022;-71
2023/12/05 02:46:45;;;;;;;85.60;41.70;;;;;;;-6.16;89.17;100789.41;108797;281;38344;-73
2023/12/05 02:49:20;;;;;;;76.40;38.50;;;;;;;-6.15;89.60;100793.86;108705;281;38201;-71
2023/12/05 02:51:57;;;;;;;67.50;34.10;;;;;;;-6.13;89.72;100797.31;108778;281;38221;-69
2023/12/05 02:54:35;;;;;;;60.90;32.40;;;;;;;-6.12;89.78;100798.55;108779;281;38337;-70
2023/12/05 02:57:10;;;;;;;59.20;31.80;;;;;;;-6.08;89.77;100803.30;108560;282;155025;-71
2023/12/05 02:59:46;;;;;;;54.80;30.00;;;;;;;-6.02;89.92;100804.34;108756;281;39008;-70
2023/12/05 03:02:29;;;;;;;56.50;30.40;;;;;;;-5.94;90.07;100803.09;108643;281;154542;-71
2023/12/05 03:05:09;;;;;;;58.60;32.50;;;;;;;-5.91;89.93;100801.84;108131;281;922171;-69
2023/12/05 03:07:48;;;;;;;54.50;29.20;;;;;;;-5.89;90.01;100802.09;107980;281;923386;-70
2023/12/05 03:10:22;;;;;;;59.00;31.90;;;;;;;-5.88;89.86;100802.26;108692;282;38822;-70
2023/12/05 03:12:57;;;;;;;52.40;27.80;;;;;;;-5.85;90.00;100796.94;108802;281;39419;-70
2023/12/05 03:15:31;;;;;;;49.20;26.40;;;;;;;-5.80;89.78;100799.68;108627;282;155638;-70
2023/12/05 03:18:06;;;;;;;51.60;27.40;;;;;;;-5.76;89.84;100796.75;108848;280;38396;-70
2023/12/05 03:20:40;;;;;;;47.70;26.80;;;;;;;-5.68;89.91;100795.98;108653;280;153970;-71
2023/12/05 03:23:18;;;;;;;48.80;27.20;;;;;;;-5.65;89.75;100790.33;108122;281;923015;-71
2023/12/05 03:25:52;;;;;;;50.90;28.80;;;;;;;-5.61;89.76;100789.25;108648;281;155138;-72
2023/12/05 03:28:28;;;;;;;50.50;27.90;;;;;;;-5.60;89.66;100785.92;108767;281;38482;-68
2023/12/05 03:31:06;;;;;;;49.50;27.30;;;;;;;-5.60;89.50;100786.43;108808;281;38629;-68
2023/12/05 03:33:45;;;;;;;51.30;28.90;;;;;;;-5.57;89.71;100781.76;108622;281;155029;-69
2023/12/05 03:36:25;;;;;;;52.20;29.50;;;;;;;-5.52;89.61;100776.80;108788;281;38313;-68
2023/12/05 03:39:02;;;;;;;50.90;28.70;;;;;;;-5.47;89.64;100778.33;108691;281;154389;-68
2023/12/05 03:41:39;;;;;;;48.90;29.00;;;;;;;-5.38;89.92;100778.48;108755;281;38356;-67
2023/12/05 03:44:14;;;;;;;49.20;27.70;;;;;;;-5.35;89.65;100769.90;108700;281;153971;-70
2023/12/05 03:46:48;;;;;;;49.50;27.90;;;;;;;-5.33;89.59;100774.06;108780;281;38501;-72
2023/12/05 03:49:24;;;;;;;50.40;28.10;;;;;;;-5.33;89.45;100769.30;108787;281;38509;-72
2023/12/05 03:51:58;;;;;;;55.90;29.90;;;;;;;-5.35;89.29;100768.70;108767;281;38525;-72
2023/12/05 03:54:36;;;;;;;52.80;28.50;;;;;;;-5.35;89.28;100770.26;108834;281;38187;-71
2023/12/05 03:57:12;;;;;;;46.50;26.40;;;;;;;-5.32;89.20;100771.70;108657;281;154482;-72
2023/12/05 03:59:47;;;;;;;50.60;29.00;;;;;;;-5.29;89.18;100768.55;108812;280;38565;-72
2023/12/05 04:02:23;;;;;;;49.10;28.90;;;;;;;-5.24;89.45;100770.59;108656;280;153982;-72
2023/12/05 04:05:00;;;;;;;48.00;28.20;;;;;;;-5.21;89.24;100767.30;108815;281;38400;-70
2023/12/05 04:07:36;;;;;;;50.90;29.70;;;;;;;-5.21;89.19;100765.95;108710;281;153987;-72
2023/12/05 04:10:20;;;;;;;48.80;27.80;;;;;;;-5.22;89.01;100764.39;108795;281;38309;-69
2023/12/05 04:13:03;;;;;;;46.70;27.30;;;;;;;-5.21;88.91;100766.29;108827;281;39106;-69
2023/12/05 04:15:37;;;;;;;45.30;25.30;;;;;;;-5.16;88.77;100764.05;108668;281;154297;-69
2023/12/05 04:18:18;;;;;;;47.60;25.90;;;;;;;-5.13;88.78;100760.38;108794;281;38427;-69
2023/12/05 04:20:52;;;;;;;52.30;27.70;;;;;;;-5.06;89.14;100760.98;108660;281;153764;-69
2023/12/05 04:23:28;;;;;;;46.70;27.70;;;;;;;-4.99;89.20;100760.15;108815;281;38214;-70
2023/12/05 04:26:06;;;;;;;47.30;27.10;;;;;;;-4.96;89.17;100759.09;108689;281;154515;-70
2023/12/05 04:28:40;;;;;;;51.80;29.20;;;;;;;-4.95;88.88;100753.84;108799;281;40093;-70
2023/12/05 04:31:16;;;;;;;49.90;28.40;;;;;;;-4.92;88.78;100753.39;108741;281;38328;-69
2023/12/05 04:33:52;;;;;;;45.80;26.20;;;;;;;-4.87;88.81;100749.98;108678;281;154111;-70
2023/12/05 04:36:27;;;;;;;45.20;25.70;;;;;;;-4.82;88.53;100748.08;108799;281;38808;-69
2023/12/05 04:39:00;;;;;;;43.40;26.80;;;;;;;-4.82;88.35;100743.17;108680;281;153828;-68
2023/12/05 04:41:35;;;;;;;46.30;28.10;;;;;;;-4.81;88.26;100742.85;108762;281;38579;-70
2023/12/05 04:44:12;;;;;;;46.60;25.30;;;;;;;-4.83;87.82;100744.66;108690;281;154151;-70
2023/12/05 04:46:46;;;;;;;42.80;25.50;;;;;;;-4.87;87.44;100744.20;108771;281;38763;-70
2023/12/05 04:49:20;;;;;;;44.20;26.00;;;;;;;-4.89;87.26;100744.98;108850;281;38416;-72
2023/12/05 04:51:54;;;;;;;45.10;26.00;;;;;;;-4.86;87.61;100746.44;108674;281;154070;-70
2023/12/05 04:54:29;;;;;;;42.90;25.60;;;;;;;-4.82;87.67;100746.38;108818;281;39674;-70
2023/12/05 04:57:05;;;;;;;44.30;26.50;;;;;;;-4.81;87.54;100746.08;108712;281;153753;-71
2023/12/05 04:59:42;;;;;;;57.20;32.20;;;;;;;-4.82;86.99;100743.31;108835;281;38366;-68
2023/12/05 05:02:22;;;;;;;56.50;29.60;;;;;;;-4.85;87.15;100746.64;108704;281;154276;-67
2023/12/05 05:04:59;;;;;;;50.40;27.60;;;;;;;-4.83;87.18;100744.81;108843;281;38190;-70
2023/12/05 05:07:35;;;;;;;42.60;25.00;;;;;;;-4.80;87.05;100745.23;108749;281;154470;-70
2023/12/05 05:10:15;;;;;;;66.60;33.80;;;;;;;-4.79;87.05;100747.98;108794;281;38220;-70
2023/12/05 05:12:52;;;;;;;69.20;35.30;;;;;;;-4.81;87.06;100747.61;108356;281;38839;-71
2023/12/05 05:15:26;;;;;;;65.00;33.70;;;;;;;-4.80;87.29;100746.28;108661;281;154902;-70
2023/12/05 05:18:02;;;;;;;59.30;29.90;;;;;;;-4.82;87.06;100747.40;108831;281;38218;-70
2023/12/05 05:20:36;;;;;;;70.70;33.90;;;;;;;-4.89;86.87;100745.66;108664;281;154307;-72
2023/12/05 05:23:11;;;;;;;57.50;30.20;;;;;;;-4.91;86.75;100740.65;108812;281;38328;-69
2023/12/05 05:25:47;;;;;;;44.30;25.60;;;;;;;-4.94;86.43;100741.59;108589;281;154423;-71
2023/12/05 05:28:24;;;;;;;48.10;29.30;;;;;;;-4.95;86.67;100741.41;108833;281;39941;-72
2023/12/05 05:31:00;;;;;;;45.50;28.10;;;;;;;-4.91;86.98;100747.30;108696;281;39343;-73
2023/12/05 05:33:38;;;;;;;39.90;23.70;;;;;;;-4.91;86.98;100744.75;108711;281;154022;-70
2023/12/05 05:36:17;;;;;;;46.50;26.90;;;;;;;-4.90;87.00;100738.98;108811;281;39711;-70
2023/12/05 05:38:56;;;;;;;50.30;28.20;;;;;;;-4.94;86.93;100740.94;108634;281;155173;-71
2023/12/05 05:41:32;;;;;;;39.10;24.10;;;;;;;-4.92;87.01;100748.29;108817;281;38377;-71
2023/12/05 05:44:08;;;;;;;38.30;22.30;;;;;;;-4.87;87.32;100748.59;108658;281;155440;-69
2023/12/05 05:46:45;;;;;;;42.10;25.50;;;;;;;-4.84;86.89;100748.38;108717;281;38292;-70
2023/12/05 05:49:21;;;;;;;41.30;25.00;;;;;;;-4.83;86.99;100746.86;108812;281;38404;-71
2023/12/05 05:52:02;;;;;;;42.50;24.70;;;;;;;-4.81;87.14;100744.71;108681;280;154748;-68
2023/12/05 05:54:40;;;;;;;41.00;24.30;;;;;;;-4.83;86.84;100741.60;108885;280;38207;-73
2023/12/05 05:57:14;;;;;;;43.30;24.70;;;;;;;-4.84;86.79;100743.96;108707;280;154468;-72
2023/12/05 05:59:49;;;;;;;39.70;24.20;;;;;;;-4.85;86.72;100741.02;108811;281;38265;-70
2023/12/05 06:02:27;;;;;;;43.80;26.10;;;;;;;-4.83;86.74;100740.38;108645;281;155868;-69
2023/12/05 06:05:02;;;;;;;42.40;24.70;;;;;;;-4.81;86.75;100742.67;108865;280;38342;-69
2023/12/05 06:07:39;;;;;;;52.30;28.60;;;;;;;-4.83;86.19;100741.08;108777;280;154915;-70
2023/12/05 06:10:16;;;;;;;53.40;29.30;;;;;;;-4.85;86.24;100739.31;108783;281;39557;-71
2023/12/05 06:12:50;;;;;;;69.80;33.90;;;;;;;-4.87;86.27;100739.76;108825;281;38545;-70
2023/12/05 06:15:28;;;;;;;64.50;31.30;;;;;;;-4.94;86.23;100736.17;108650;280;155052;-70
2023/12/05 06:18:04;;;;;;;58.80;29.30;;;;;;;-4.95;86.17;100735.97;108873;280;38166;-72
2023/12/05 06:20:51;;;;;;;51.90;27.70;;;;;;;-4.93;86.26;100732.63;108695;280;154060;-72
2023/12/05 06:23:27;;;;;;;52.60;28.40;;;;;;;-4.92;86.27;100730.96;108832;281;39775;-69
2023/12/05 06:26:02;;;;;;;38.40;23.30;;;;;;;-4.92;86.29;100732.48;108684;281;155492;-71
2023/12/05 06:28:37;;;;;;;42.20;23.70;;;;;;;-4.92;86.32;100728.05;108809;280;39399;-70
2023/12/05 06:31:12;;;;;;;41.40;24.90;;;;;;;-4.94;86.18;100727.98;108870;280;38672;-71
2023/12/05 06:33:46;;;;;;;45.10;25.60;;;;;;;-4.98;86.18;100731.60;108667;279;154672;-72
2023/12/05 06:36:21;;;;;;;40.10;23.80;;;;;;;-5.03;85.79;100731.29;108841;281;39330;-72
2023/12/05 06:38:55;;;;;;;39.70;24.20;;;;;;;-5.06;85.65;100732.23;108708;281;154401;-71
2023/12/05 06:41:30;;;;;;;43.40;24.60;;;;;;;-5.11;85.31;100732.06;108794;281;38630;-71
2023/12/05 06:44:08;;;;;;;44.20;24.70;;;;;;;-5.14;85.50;100726.35;108700;281;153863;-72
2023/12/05 06:46:42;;;;;;;38.70;23.20;;;;;;;-5.13;85.79;100730.30;108818;281;38569;-71
2023/12/05 06:49:17;;;;;;;40.00;24.50;;;;;;;-5.15;85.83;100730.90;108814;281;38303;-70
2023/12/05 06:51:57;;;;;;;45.90;25.20;;;;;;;-5.17;85.78;100734.43;108525;281;176173;-70
2023/12/05 06:54:37;;;;;;;44.30;24.80;;;;;;;-5.19;85.72;100733.84;108750;281;38475;-70
2023/12/05 06:57:11;;;;;;;41.20;24.30;;;;;;;-5.18;85.60;100737.30;108639;281;154078;-71
2023/12/05 06:59:45;;;;;;;41.00;24.10;;;;;;;-5.17;85.63;100736.11;108816;281;38333;-71
2023/12/05 07:05:13;;;;;;;45.20;25.40;;;;;;;-5.21;85.54;100732.10;108805;281;38331;-69
2023/12/05 07:07:54;;;;;;;48.60;26.80;;;;;;;-5.25;85.41;100732.31;108676;281;154178;-69
2023/12/05 07:10:35;;;;;;;43.60;25.30;;;;;;;-5.33;85.24;100728.67;108784;281;39295;-68
2023/12/05 07:13:10;;;;;;;;;;;;;;;-5.35;85.31;100728.41;108728;281;176403;-73
2023/12/05 07:15:44;;;;;;;39.50;23.10;;;;;;;-5.40;85.40;100722.80;108661;280;140671;-72
2023/12/05 07:18:19;;;;;;;42.20;24.30;;;;;;;-5.40;85.31;100724.84;108940;279;38170;-71
2023/12/05 07:20:53;;;;;;;41.30;24.60;;;;;;;-5.45;84.97;100727.08;108667;280;153733;-71
2023/12/05 07:23:30;;;;;;;47.30;25.40;;;;;;;-5.48;85.32;100725.45;108849;281;39200;-74
2023/12/05 07:26:05;;;;;;;43.20;24.20;;;;;;;-5.44;85.56;100724.38;108699;281;155151;-72
2023/12/05 07:28:43;;;;;;;41.80;24.10;;;;;;;-5.44;85.45;100721.50;108852;280;37939;-73
2023/12/05 07:31:18;;;;;;;44.20;23.40;;;;;;;-5.39;85.53;100723.70;108859;280;38251;-69
2023/12/05 07:33:52;;;;;;;40.70;24.60;;;;;;;-5.24;85.77;100722.97;108687;280;154475;-72
2023/12/05 07:36:26;;;;;;;42.10;23.70;;;;;;;-5.11;85.82;100721.17;108795;281;39767;-72
2023/12/05 07:39:01;;;;;;;44.20;26.40;;;;;;;-5.00;85.60;100713.17;108701;281;153754;-72
2023/12/05 07:41:35;;;;;;;43.40;25.90;;;;;;;-4.92;85.13;100717.86;108842;280;38262;-70
2023/12/05 07:44:17;;;;;;;47.90;26.30;;;;;;;-4.87;85.26;100714.40;108758;280;154085;-70
2023/12/05 07:46:54;;;;;;;42.00;25.50;;;;;;;-4.86;84.89;100714.95;108806;281;38847;-68
2023/12/05 07:49:31;;;;;;;45.80;25.70;;;;;;;-4.90;84.89;100719.93;108832;281;38930;-72
2023/12/05 07:52:05;;;;;;;48.80;25.40;;;;;;;-4.91;84.68;100717.71;108747;281;38288;-72
2023/12/05 07:54:39;;;;;;;47.50;26.10;;;;;;;-4.93;84.27;100714.42;108821;281;38621;-68
2023/12/05 07:57:26;;;;;;;42.60;24.40;;;;;;;-4.91;84.48;100709.86;108651;281;155323;-68
2023/12/05 08:00:04;;;;;;;44.80;26.10;;;;;;;-4.87;84.81;100706.79;108781;281;38811;-68
2023/12/05 08:02:39;;;;;;;48.60;28.30;;;;;;;-4.80;84.72;100698.96;108625;281;154113;-70
2023/12/05 08:05:16;;;;;;;51.00;28.20;;;;;;;-4.77;84.60;100700.23;108808;281;38415;-69
2023/12/05 08:07:50;;;;;;;49.70;27.80;;;;;;;-4.75;84.28;100697.05;108682;281;154401;-72
2023/12/05 08:10:24;;;;;;;54.20;28.90;;;;;;;-4.79;83.98;100694.55;108768;281;38297;-70
2023/12/05 08:12:58;;;;;;;47.10;27.00;;;;;;;-4.81;83.57;100695.02;108857;281;38276;-69
2023/12/05 08:15:41;;;;;;;49.50;28.50;;;;;;;-4.81;83.59;100695.52;108616;281;155124;-67
2023/12/05 08:18:15;;;;;;;50.80;28.60;;;;;;;-4.77;83.67;100697.52;108803;281;38311;-70
2023/12/05 08:20:55;;;;;;;52.10;30.30;;;;;;;-4.76;83.38;100698.41;108639;281;153731;-70
2023/12/05 08:23:30;;;;;;;52.80;29.70;;;;;;;-4.74;83.74;100693.70;108814;281;39351;-71
2023/12/05 08:26:04;;;;;;;54.20;30.40;;;;;;;-4.70;83.42;100693.98;108674;281;154117;-71
2023/12/05 08:28:40;;;;;;;52.70;30.70;;;;;;;-4.67;83.41;100695.95;108819;281;38785;-72
2023/12/05 08:31:15;;;;;;;47.80;28.00;;;;;;;-4.62;83.64;100700.02;108735;281;40000;-70
2023/12/05 08:33:49;;;;;;;51.10;27.90;;;;;;;-4.54;83.42;100706.53;108651;281;154289;-68
2023/12/05 08:36:23;;;;;;;54.00;29.40;;;;;;;-4.47;83.00;100711.48;108804;281;38150;-69
2023/12/05 08:39:00;;;;;;;50.90;28.90;;;;;;;-4.44;82.66;100710.37;108725;281;177296;-69
2023/12/05 08:41:36;;;;;;;54.60;30.10;;;;;;;-4.41;82.87;100709.95;108865;280;38303;-71
2023/12/05 08:44:12;;;;;;;55.20;30.40;;;;;;;-4.36;82.94;100714.02;108763;280;153954;-68
2023/12/05 08:46:47;;;;;;;58.30;30.20;;;;;;;-4.34;82.12;100713.04;108834;280;38758;-68
2023/12/05 08:49:22;;;;;;;63.30;32.00;;;;;;;-4.32;81.72;100710.38;108830;280;38462;-72
2023/12/05 08:52:00;;;;;;;73.80;35.20;;;;;;;-4.25;82.16;100706.48;108668;280;154313;-70
2023/12/05 08:54:37;;;;;;;71.60;37.10;;;;;;;-4.14;82.38;100701.15;108190;280;918934;-70
2023/12/05 08:57:12;;;;;;;48.60;29.00;;;;;;;-4.04;81.84;100704.84;108681;280;155275;-72
2023/12/05 08:59:47;;;;;;;52.00;29.20;;;;;;;-3.95;81.20;100711.38;108850;280;38596;-71
2023/12/05 09:02:24;;;;;;;56.30;29.60;;;;;;;-3.85;81.52;100705.84;108699;280;154380;-72
2023/12/05 09:05:01;;;;;;;62.80;32.60;;;;;;;-3.68;81.60;100702.52;108815;280;38574;-71
2023/12/05 09:07:35;;;;;;;51.50;28.30;;;;;;;-3.49;80.89;100698.88;108821;280;38558;-70
2023/12/05 09:10:16;;;;;;;57.80;30.90;;;;;;;-3.29;81.04;100698.66;108780;280;39325;-70
2023/12/05 09:12:54;;;;;;;73.00;38.20;;;;;;;-3.12;80.82;100701.45;108811;280;38426;-71
2023/12/05 09:15:32;;;;;;;53.70;30.70;;;;;;;-2.96;80.29;100693.10;108671;280;154084;-71
2023/12/05 09:18:10;;;;;;;67.40;34.80;;;;;;;-2.85;79.45;100691.80;108875;280;38480;-67
2023/12/05 09:20:58;;;;;;;73.00;38.90;;;;;;;-2.64;79.69;100682.52;108735;279;154371;-68
2023/12/05 09:23:43;;;;;;;58.40;32.20;;;;;;;-2.40;78.71;100675.98;108980;279;38521;-70
2023/12/05 09:26:23;;;;;;;52.00;29.50;;;;;;;-2.16;78.45;100676.44;108801;279;155318;-69
2023/12/05 09:28:55;;;;;;;;;;;;;;;-1.88;76.65;100672.49;108867;280;38308;-68
2023/12/05 09:31:30;;;;;;;69.40;36.20;;;;;;;-1.66;76.83;100671.33;108777;280;38488;-69
2023/12/05 09:34:07;;;;;;;58.10;31.70;;;;;;;-1.35;74.97;100667.71;108814;280;38750;-70
2023/12/05 09:36:45;;;;;;;50.80;31.20;;;;;;;-1.15;75.31;100664.06;108818;280;38951;-71
2023/12/05 09:39:20;;;;;;;48.60;30.00;;;;;;;-0.89;73.80;100662.72;108706;280;154319;-68
2023/12/05 09:42:00;;;;;;;49.40;29.80;;;;;;;-0.63;73.25;100658.24;108690;280;175487;-70
2023/12/05 09:44:39;;;;;;;49.80;31.00;;;;;;;-0.41;73.35;100657.98;108716;280;154781;-72
2023/12/05 09:47:15;;;;;;;48.20;28.50;;;;;;;-0.14;71.13;100662.73;108833;280;37806;-72
2023/12/05 09:49:53;;;;;;;46.30;30.30;;;;;;;0.03;69.71;100657.74;108737;280;153978;-67
2023/12/05 09:52:31;;;;;;;45.10;27.40;;;;;;;0.20;70.78;100661.51;108793;280;38951;-68
2023/12/05 09:55:13;;;;;;;42.70;26.90;;;;;;;0.43;69.61;100664.96;108819;280;38125;-71
2023/12/05 09:58:02;;;;;;;43.80;27.30;;;;;;;0.67;68.86;100663.25;108697;280;153393;-70
2023/12/05 10:00:39;;;;;;;45.80;28.20;;;;;;;0.91;69.14;100661.52;108809;280;38183;-70
2023/12/05 10:03:22;;;;;;;47.20;29.80;;;;;;;1.06;67.62;100656.27;108689;280;154632;-70
2023/12/05 10:05:57;;;;;;;47.30;30.50;;;;;;;1.18;67.17;100655.48;108823;280;38476;-73
2023/12/05 10:08:46;;;;;;;48.00;30.30;;;;;;;1.30;64.98;100648.14;108707;280;153529;-67
2023/12/05 10:11:23;;;;;;;76.30;40.60;;;;;;;1.33;65.73;100643.17;108812;280;38698;-66
2023/12/05 10:13:58;;;;;;;55.80;31.70;;;;;;;1.51;65.50;100645.29;108643;280;153636;-72
2023/12/05 10:16:32;;;;;;;44.10;27.50;;;;;;;1.48;63.92;100648.89;108761;281;38870;-70
2023/12/05 10:19:06;;;;;;;48.50;28.30;;;;;;;1.28;63.95;100646.23;108771;282;38748;-71
2023/12/05 10:21:44;;;;;;;56.80;32.70;;;;;;;1.00;64.84;100647.83;108657;281;153833;-71
2023/12/05 10:24:21;;;;;;;60.50;34.10;;;;;;;0.74;64.91;100648.53;108777;282;38245;-68
2023/12/05 10:26:57;;;;;;;55.80;30.40;;;;;;;0.54;65.13;100642.04;108665;281;154572;-68
2023/12/05 10:29:36;;;;;;;51.40;30.50;;;;;;;0.31;65.16;100632.93;108829;281;39369;-70
2023/12/05 10:32:12;;;;;;;;;;;;;;;0.07;66.02;100628.45;108723;281;154829;-72
2023/12/05 10:34:56;;;;;;;46.80;26.90;;;;;;;-0.17;66.16;100629.95;108832;281;38336;-72
2023/12/05 10:37:32;;;;;;;45.20;26.70;;;;;;;-0.38;65.67;100629.55;108811;282;38367;-72
2023/12/05 10:40:14;;;;;;;47.00;27.10;;;;;;;-0.64;65.52;100628.94;108769;281;39063;-67
2023/12/05 10:42:53;;;;;;;53.50;30.10;;;;;;;-0.89;65.62;100628.61;108808;281;38807;-72
2023/12/05 10:45:28;;;;;;;53.50;29.90;;;;;;;-1.09;66.58;100625.27;108577;281;153826;-71
2023/12/05 10:48:02;;;;;;;54.70;30.30;;;;;;;-1.21;67.28;100624.95;108833;282;38171;-68
2023/12/05 10:50:36;;;;;;;49.50;29.00;;;;;;;-1.29;67.89;100621.06;108648;281;154444;-69
2023/12/05 10:53:10;;;;;;;50.10;27.40;;;;;;;-1.35;68.28;100612.95;108814;280;39419;-73
2023/12/05 10:55:44;;;;;;;59.20;31.50;;;;;;;-1.44;68.27;100615.54;108661;280;153989;-73
2023/12/05 10:58:18;;;;;;;53.60;29.90;;;;;;;-1.59;68.49;100613.46;108779;281;38309;-70
2023/12/05 11:00:54;;;;;;;58.20;30.50;;;;;;;-1.67;69.04;100611.45;108788;282;39656;-72
2023/12/05 11:03:30;;;;;;;58.80;30.70;;;;;;;-1.74;68.89;100612.70;108646;281;154181;-70
2023/12/05 11:06:06;;;;;;;50.00;28.40;;;;;;;-1.85;68.86;100607.92;108773;281;38479;-70
2023/12/05 11:08:46;;;;;;;58.50;29.30;;;;;;;-1.98;68.88;100607.87;108666;281;153984;-70
2023/12/05 11:11:23;;;;;;;63.20;30.70;;;;;;;-2.07;69.18;100604.98;108767;281;38775;-71
2023/12/05 11:13:58;;;;;;;62.60;30.00;;;;;;;-2.17;69.60;100603.63;108674;281;154649;-72
2023/12/05 11:16:34;;;;;;;53.80;27.80;;;;;;;-2.16;70.03;100599.20;108113;281;919868;-72
2023/12/05 11:19:15;;;;;;;52.40;28.40;;;;;;;-2.13;70.29;100597.36;108806;282;38794;-70
2023/12/05 11:21:58;;;;;;;55.60;29.00;;;;;;;-2.10;70.32;100596.56;108645;281;154562;-70
2023/12/05 11:24:53;;;;;;;47.70;28.30;;;;;;;-2.08;70.05;100598.82;108850;282;38294;-71
2023/12/05 11:27:43;;;;;;;55.70;30.60;;;;;;;-2.14;69.95;100599.23;108663;281;154439;-70
2023/12/05 11:30:30;;;;;;;52.40;28.70;;;;;;;-2.19;70.20;100589.92;108805;282;38990;-71
2023/12/05 11:33:13;;;;;;;50.60;28.20;;;;;;;-2.22;70.35;100595.16;108687;281;154765;-72
2023/12/05 11:35:54;;;;;;;52.70;29.00;;;;;;;-2.29;69.63;100589.40;108806;281;39364;-70
2023/12/05 11:38:28;;;;;;;49.50;27.30;;;;;;;-2.35;70.11;100584.85;108692;281;153947;-68
2023/12/05 11:41:19;;;;;;;54.90;29.70;;;;;;;-2.39;70.45;100588.52;108844;281;39398;-70
2023/12/05 11:44:23;;;;;;;49.50;28.40;;;;;;;-2.42;70.88;100586.77;108683;281;154146;-67
2023/12/05 11:46:57;;;;;;;52.00;28.60;;;;;;;-2.46;71.03;100590.12;108732;282;37958;-68
2023/12/05 11:49:48;;;;;;;53.30;29.40;;;;;;;-2.50;71.26;100586.64;108783;282;38571;-67
2023/12/05 11:52:29;;;;;;;51.30;27.00;;;;;;;-2.51;71.49;100583.88;108761;281;38187;-67
2023/12/05 11:55:03;;;;;;;52.50;27.10;;;;;;;-2.48;71.55;100581.86;108797;281;39245;-69